Hlavní strana
METAR-TAF:

METAR-TAF

Letiště :

Chlef, Alžírsko

zeměpisná šířka: 36-13N, zeměpisná délka: 001-20E, výška: 143 m

Aktuální stav počasí

Zpráva byla vytvořena před 30 minutami, v 22:00 UTC
Východoseverovýchodní vítr 8 kt
Teplota 16°C
Vlhkost vzduchu 42%
Tlak 1017 hPa
Viditelnost 10 km a více
Skoro jasno ve výšce 2600 ft

METAR: DAOI 282200Z 06008KT 9999 FEW026 16/03 Q1017

Čas: 23:30 (22:30 UTC)

Předpověď počasí

Zpráva byla vytvořena před 5 hodinami a 30 minutami, v 17:00 UTC
Předpověď platná od 28 v 18 UTC do 01 v 18 UTC
Východoseverovýchodní vítr 10 kt
Viditelnost 10 km a více
Skoro jasno ve výšce 2600 ft

TAF: DAOI 281700Z 2818/0118 06010KT 9999 FEW026

Stav a předpovědi počasí z více než 4 000 letišť (zprávy METAR a TAF).

Červené a žluté tečky na mapě představují dostupné meteorologické stanice.

Když kurzor umístíte na tečku, zobrazí se název stanice.

Pak kliknutím zobrazíte stav a předpověď počasí.

Chcete-li změnit mapu, kliknutím na zelené tlačítko se znaménkem +mapu přiblížíte, kliknutím na zelené tlačítko se znaménkem – mapu oddálíte a kliknutím na zelené šipky přejdete na sousední mapy.


METAR-TAF: